sensor_id;sensor_type;location;lat;lon;timestamp;P1;durP1;ratioP1;P2;durP2;ratioP2
15504;SDS011;7854;52.184;5.942;2023-07-22T00:03:58;7;;;6;;
15504;SDS011;7854;52.184;5.942;2023-07-22T00:04:42;5;;;5;;
15504;SDS011;7854;52.184;5.942;2023-07-22T00:06:56;7;;;6;;
15504;SDS011;7854;52.184;5.942;2023-07-22T00:09:10;6;;;6;;
15504;SDS011;7854;52.184;5.942;2023-07-22T00:11:25;7;;;6;;
15504;SDS011;7854;52.184;5.942;2023-07-22T00:13:39;7;;;6;;
15504;SDS011;7854;52.184;5.942;2023-07-22T00:15:53;8;;;7;;
15504;SDS011;7854;52.184;5.942;2023-07-22T00:18:08;8;;;7;;
15504;SDS011;7854;52.184;5.942;2023-07-22T00:20:22;9;;;8;;
15504;SDS011;7854;52.184;5.942;2023-07-22T00:22:37;8;;;8;;
15504;SDS011;7854;52.184;5.942;2023-07-22T00:24:52;8;;;7;;
15504;SDS011;7854;52.184;5.942;2023-07-22T00:27:06;8;;;7;;
15504;SDS011;7854;52.184;5.942;2023-07-22T00:29:20;7;;;7;;
15504;SDS011;7854;52.184;5.942;2023-07-22T00:31:34;7;;;7;;
15504;SDS011;7854;52.184;5.942;2023-07-22T00:33:49;7;;;6;;
15504;SDS011;7854;52.184;5.942;2023-07-22T00:36:04;8;;;7;;
15504;SDS011;7854;52.184;5.942;2023-07-22T00:40:32;9;;;8;;
15504;SDS011;7854;52.184;5.942;2023-07-22T00:42:46;8;;;7;;
15504;SDS011;7854;52.184;5.942;2023-07-22T00:45:07;7;;;7;;
15504;SDS011;7854;52.184;5.942;2023-07-22T00:47:27;8;;;8;;
15504;SDS011;7854;52.184;5.942;2023-07-22T00:49:48;8;;;7;;
15504;SDS011;7854;52.184;5.942;2023-07-22T00:52:08;9;;;9;;
15504;SDS011;7854;52.184;5.942;2023-07-22T00:54:28;8;;;7;;
15504;SDS011;7854;52.184;5.942;2023-07-22T00:56:42;9;;;8;;
15504;SDS011;7854;52.184;5.942;2023-07-22T00:58:57;9;;;8;;
15504;SDS011;7854;52.184;5.942;2023-07-22T01:01:11;9;;;8;;
15504;SDS011;7854;52.184;5.942;2023-07-22T01:03:26;8;;;8;;
15504;SDS011;7854;52.184;5.942;2023-07-22T01:05:41;9;;;8;;
15504;SDS011;7854;52.184;5.942;2023-07-22T01:07:55;8;;;7;;
15504;SDS011;7854;52.184;5.942;2023-07-22T01:10:08;10;;;9;;
15504;SDS011;7854;52.184;5.942;2023-07-22T01:12:23;10;;;9;;
15504;SDS011;7854;52.184;5.942;2023-07-22T01:14:37;11;;;10;;
15504;SDS011;7854;52.184;5.942;2023-07-22T01:16:51;16;;;10;;
15504;SDS011;7854;52.184;5.942;2023-07-22T01:19:06;10;;;9;;
15504;SDS011;7854;52.184;5.942;2023-07-22T01:21:20;10;;;9;;
15504;SDS011;7854;52.184;5.942;2023-07-22T01:25:49;9;;;8;;
15504;SDS011;7854;52.184;5.942;2023-07-22T01:28:03;10;;;9;;
15504;SDS011;7854;52.184;5.942;2023-07-22T01:30:19;10;;;9;;
15504;SDS011;7854;52.184;5.942;2023-07-22T01:32:32;11;;;9;;
15504;SDS011;7854;52.184;5.942;2023-07-22T01:34:47;11;;;9;;
15504;SDS011;7854;52.184;5.942;2023-07-22T01:37:01;9;;;8;;
15504;SDS011;7854;52.184;5.942;2023-07-22T01:39:17;12;;;10;;
15504;SDS011;7854;52.184;5.942;2023-07-22T01:41:30;13;;;9;;
15504;SDS011;7854;52.184;5.942;2023-07-22T01:43:45;11;;;9;;
15504;SDS011;7854;52.184;5.942;2023-07-22T01:45:59;9;;;9;;
15504;SDS011;7854;52.184;5.942;2023-07-22T01:48:14;12;;;11;;
15504;SDS011;7854;52.184;5.942;2023-07-22T01:50:28;16;;;10;;
15504;SDS011;7854;52.184;5.942;2023-07-22T01:52:42;9;;;8;;
15504;SDS011;7854;52.184;5.942;2023-07-22T01:54:57;12;;;10;;
15504;SDS011;7854;52.184;5.942;2023-07-22T01:57:11;10;;;9;;
15504;SDS011;7854;52.184;5.942;2023-07-22T01:59:25;10;;;10;;
15504;SDS011;7854;52.184;5.942;2023-07-22T02:01:40;18;;;11;;
15504;SDS011;7854;52.184;5.942;2023-07-22T02:03:55;12;;;11;;
15504;SDS011;7854;52.184;5.942;2023-07-22T02:08:24;22;;;11;;
15504;SDS011;7854;52.184;5.942;2023-07-22T02:10:38;12;;;11;;
15504;SDS011;7854;52.184;5.942;2023-07-22T02:12:52;17;;;11;;
15504;SDS011;7854;52.184;5.942;2023-07-22T02:15:08;17;;;12;;
15504;SDS011;7854;52.184;5.942;2023-07-22T02:17:22;14;;;11;;
15504;SDS011;7854;52.184;5.942;2023-07-22T02:19:36;16;;;12;;
15504;SDS011;7854;52.184;5.942;2023-07-22T02:21:50;13;;;11;;
15504;SDS011;7854;52.184;5.942;2023-07-22T02:24:05;16;;;12;;
15504;SDS011;7854;52.184;5.942;2023-07-22T02:28:33;12;;;11;;
15504;SDS011;7854;52.184;5.942;2023-07-22T02:30:48;15;;;11;;
15504;SDS011;7854;52.184;5.942;2023-07-22T02:33:05;15;;;13;;
15504;SDS011;7854;52.184;5.942;2023-07-22T02:35:17;19;;;13;;
15504;SDS011;7854;52.184;5.942;2023-07-22T02:37:31;21;;;14;;
15504;SDS011;7854;52.184;5.942;2023-07-22T02:39:46;18;;;14;;
15504;SDS011;7854;52.184;5.942;2023-07-22T02:42:00;13;;;11;;
15504;SDS011;7854;52.184;5.942;2023-07-22T02:44:13;29;;;15;;
15504;SDS011;7854;52.184;5.942;2023-07-22T02:46:28;19;;;14;;
15504;SDS011;7854;52.184;5.942;2023-07-22T02:48:42;18;;;14;;
15504;SDS011;7854;52.184;5.942;2023-07-22T02:51:01;28;;;16;;
15504;SDS011;7854;52.184;5.942;2023-07-22T02:53:11;25;;;16;;
15504;SDS011;7854;52.184;5.942;2023-07-22T02:55:26;26;;;17;;
15504;SDS011;7854;52.184;5.942;2023-07-22T02:57:41;27;;;17;;
15504;SDS011;7854;52.184;5.942;2023-07-22T02:59:55;23;;;15;;
15504;SDS011;7854;52.184;5.942;2023-07-22T03:02:09;29;;;17;;
15504;SDS011;7854;52.184;5.942;2023-07-22T03:04:24;23;;;16;;
15504;SDS011;7854;52.184;5.942;2023-07-22T03:06:38;30;;;18;;
15504;SDS011;7854;52.184;5.942;2023-07-22T03:08:53;31;;;17;;
15504;SDS011;7854;52.184;5.942;2023-07-22T03:11:07;27;;;16;;
15504;SDS011;7854;52.184;5.942;2023-07-22T03:13:22;25;;;16;;
15504;SDS011;7854;52.184;5.942;2023-07-22T03:15:36;21;;;16;;
15504;SDS011;7854;52.184;5.942;2023-07-22T03:17:50;24;;;13;;
15504;SDS011;7854;52.184;5.942;2023-07-22T03:20:05;29;;;15;;
15504;SDS011;7854;52.184;5.942;2023-07-22T03:22:19;27;;;16;;
15504;SDS011;7854;52.184;5.942;2023-07-22T03:24:34;31;;;18;;
15504;SDS011;7854;52.184;5.942;2023-07-22T03:26:48;26;;;17;;
15504;SDS011;7854;52.184;5.942;2023-07-22T03:31:17;27;;;17;;
15504;SDS011;7854;52.184;5.942;2023-07-22T03:33:31;25;;;16;;
15504;SDS011;7854;52.184;5.942;2023-07-22T03:35:46;24;;;15;;
15504;SDS011;7854;52.184;5.942;2023-07-22T03:38:00;27;;;16;;
15504;SDS011;7854;52.184;5.942;2023-07-22T03:40:15;28;;;16;;
15504;SDS011;7854;52.184;5.942;2023-07-22T03:42:29;31;;;16;;
15504;SDS011;7854;52.184;5.942;2023-07-22T03:44:44;24;;;15;;
15504;SDS011;7854;52.184;5.942;2023-07-22T03:46:59;20;;;16;;
15504;SDS011;7854;52.184;5.942;2023-07-22T03:49:13;18;;;15;;
15504;SDS011;7854;52.184;5.942;2023-07-22T03:51:27;22;;;16;;
15504;SDS011;7854;52.184;5.942;2023-07-22T03:53:42;25;;;16;;
15504;SDS011;7854;52.184;5.942;2023-07-22T03:55:56;25;;;17;;
15504;SDS011;7854;52.184;5.942;2023-07-22T03:58:10;22;;;16;;
15504;SDS011;7854;52.184;5.942;2023-07-22T04:00:25;38;;;17;;
15504;SDS011;7854;52.184;5.942;2023-07-22T04:02:39;31;;;16;;
15504;SDS011;7854;52.184;5.942;2023-07-22T04:04:54;28;;;17;;
15504;SDS011;7854;52.184;5.942;2023-07-22T04:09:23;22;;;15;;
15504;SDS011;7854;52.184;5.942;2023-07-22T04:11:37;19;;;14;;
15504;SDS011;7854;52.184;5.942;2023-07-22T04:13:52;26;;;16;;
15504;SDS011;7854;52.184;5.942;2023-07-22T04:16:06;28;;;17;;
15504;SDS011;7854;52.184;5.942;2023-07-22T04:18:21;21;;;15;;
15504;SDS011;7854;52.184;5.942;2023-07-22T04:22:49;26;;;16;;
15504;SDS011;7854;52.184;5.942;2023-07-22T04:25:04;20;;;15;;
15504;SDS011;7854;52.184;5.942;2023-07-22T04:27:18;32;;;16;;
15504;SDS011;7854;52.184;5.942;2023-07-22T04:29:33;24;;;17;;
15504;SDS011;7854;52.184;5.942;2023-07-22T04:31:47;20;;;16;;
15504;SDS011;7854;52.184;5.942;2023-07-22T04:36:16;23;;;17;;
15504;SDS011;7854;52.184;5.942;2023-07-22T04:38:30;27;;;18;;
15504;SDS011;7854;52.184;5.942;2023-07-22T04:40:50;22;;;15;;
15504;SDS011;7854;52.184;5.942;2023-07-22T04:43:04;23;;;15;;
15504;SDS011;7854;52.184;5.942;2023-07-22T04:45:25;28;;;16;;
15504;SDS011;7854;52.184;5.942;2023-07-22T04:47:46;19;;;13;;
15504;SDS011;7854;52.184;5.942;2023-07-22T04:50:12;21;;;14;;
15504;SDS011;7854;52.184;5.942;2023-07-22T04:52:26;16;;;12;;
15504;SDS011;7854;52.184;5.942;2023-07-22T04:54:46;17;;;14;;
15504;SDS011;7854;52.184;5.942;2023-07-22T04:57:01;16;;;15;;
15504;SDS011;7854;52.184;5.942;2023-07-22T04:59:15;20;;;13;;
15504;SDS011;7854;52.184;5.942;2023-07-22T05:01:30;17;;;13;;
15504;SDS011;7854;52.184;5.942;2023-07-22T05:03:44;13;;;12;;
15504;SDS011;7854;52.184;5.942;2023-07-22T05:05:58;21;;;14;;
15504;SDS011;7854;52.184;5.942;2023-07-22T05:08:13;16;;;14;;
15504;SDS011;7854;52.184;5.942;2023-07-22T05:10:28;22;;;13;;
15504;SDS011;7854;52.184;5.942;2023-07-22T05:12:42;16;;;14;;
15504;SDS011;7854;52.184;5.942;2023-07-22T05:14:56;21;;;13;;
15504;SDS011;7854;52.184;5.942;2023-07-22T05:17:11;22;;;13;;
15504;SDS011;7854;52.184;5.942;2023-07-22T05:19:25;19;;;15;;
15504;SDS011;7854;52.184;5.942;2023-07-22T05:21:40;15;;;14;;
15504;SDS011;7854;52.184;5.942;2023-07-22T05:23:54;21;;;15;;
15504;SDS011;7854;52.184;5.942;2023-07-22T05:26:09;17;;;14;;
15504;SDS011;7854;52.184;5.942;2023-07-22T05:28:23;29;;;17;;
15504;SDS011;7854;52.184;5.942;2023-07-22T05:30:38;20;;;15;;
15504;SDS011;7854;52.184;5.942;2023-07-22T05:32:52;21;;;16;;
15504;SDS011;7854;52.184;5.942;2023-07-22T05:35:07;19;;;14;;
15504;SDS011;7854;52.184;5.942;2023-07-22T05:37:21;24;;;16;;
15504;SDS011;7854;52.184;5.942;2023-07-22T05:39:35;17;;;13;;
15504;SDS011;7854;52.184;5.942;2023-07-22T05:41:50;23;;;16;;
15504;SDS011;7854;52.184;5.942;2023-07-22T05:44:04;20;;;15;;
15504;SDS011;7854;52.184;5.942;2023-07-22T05:46:18;18;;;15;;
15504;SDS011;7854;52.184;5.942;2023-07-22T05:48:33;17;;;14;;
15504;SDS011;7854;52.184;5.942;2023-07-22T05:50:47;32;;;16;;
15504;SDS011;7854;52.184;5.942;2023-07-22T05:53:02;17;;;15;;
15504;SDS011;7854;52.184;5.942;2023-07-22T05:55:16;17;;;15;;
15504;SDS011;7854;52.184;5.942;2023-07-22T05:57:31;23;;;15;;
15504;SDS011;7854;52.184;5.942;2023-07-22T05:59:45;15;;;13;;
15504;SDS011;7854;52.184;5.942;2023-07-22T06:01:59;20;;;15;;
15504;SDS011;7854;52.184;5.942;2023-07-22T06:04:14;20;;;14;;
15504;SDS011;7854;52.184;5.942;2023-07-22T06:06:31;21;;;13;;
15504;SDS011;7854;52.184;5.942;2023-07-22T06:08:43;19;;;14;;
15504;SDS011;7854;52.184;5.942;2023-07-22T06:10:57;14;;;13;;
15504;SDS011;7854;52.184;5.942;2023-07-22T06:15:26;15;;;12;;
15504;SDS011;7854;52.184;5.942;2023-07-22T06:17:40;14;;;12;;
15504;SDS011;7854;52.184;5.942;2023-07-22T06:22:10;14;;;11;;
15504;SDS011;7854;52.184;5.942;2023-07-22T06:24:24;12;;;11;;
15504;SDS011;7854;52.184;5.942;2023-07-22T06:26:39;11;;;10;;
15504;SDS011;7854;52.184;5.942;2023-07-22T06:28:53;12;;;11;;
15504;SDS011;7854;52.184;5.942;2023-07-22T06:31:07;12;;;11;;
15504;SDS011;7854;52.184;5.942;2023-07-22T06:33:22;16;;;10;;
15504;SDS011;7854;52.184;5.942;2023-07-22T06:35:36;15;;;12;;
15504;SDS011;7854;52.184;5.942;2023-07-22T06:37:51;14;;;12;;
15504;SDS011;7854;52.184;5.942;2023-07-22T06:40:06;13;;;12;;
15504;SDS011;7854;52.184;5.942;2023-07-22T06:42:20;13;;;11;;
15504;SDS011;7854;52.184;5.942;2023-07-22T06:44:34;20;;;12;;
15504;SDS011;7854;52.184;5.942;2023-07-22T06:46:49;17;;;13;;
15504;SDS011;7854;52.184;5.942;2023-07-22T06:49:03;15;;;11;;
15504;SDS011;7854;52.184;5.942;2023-07-22T06:51:17;14;;;12;;
15504;SDS011;7854;52.184;5.942;2023-07-22T06:53:32;16;;;14;;
15504;SDS011;7854;52.184;5.942;2023-07-22T06:55:48;13;;;11;;
15504;SDS011;7854;52.184;5.942;2023-07-22T06:58:00;21;;;11;;
15504;SDS011;7854;52.184;5.942;2023-07-22T07:00:15;13;;;12;;
15504;SDS011;7854;52.184;5.942;2023-07-22T07:02:29;16;;;11;;
15504;SDS011;7854;52.184;5.942;2023-07-22T07:04:44;11;;;10;;
15504;SDS011;7854;52.184;5.942;2023-07-22T07:06:59;12;;;10;;
15504;SDS011;7854;52.184;5.942;2023-07-22T07:11:27;11;;;10;;
15504;SDS011;7854;52.184;5.942;2023-07-22T07:13:42;12;;;11;;
15504;SDS011;7854;52.184;5.942;2023-07-22T07:15:56;11;;;10;;
15504;SDS011;7854;52.184;5.942;2023-07-22T07:18:10;11;;;10;;
15504;SDS011;7854;52.184;5.942;2023-07-22T07:20:24;12;;;11;;
15504;SDS011;7854;52.184;5.942;2023-07-22T07:22:39;13;;;10;;
15504;SDS011;7854;52.184;5.942;2023-07-22T07:24:53;10;;;10;;
15504;SDS011;7854;52.184;5.942;2023-07-22T07:27:07;8;;;8;;
15504;SDS011;7854;52.184;5.942;2023-07-22T07:29:22;7;;;7;;
15504;SDS011;7854;52.184;5.942;2023-07-22T07:31:37;10;;;7;;
15504;SDS011;7854;52.184;5.942;2023-07-22T07:33:51;8;;;8;;
15504;SDS011;7854;52.184;5.942;2023-07-22T07:36:05;8;;;8;;
15504;SDS011;7854;52.184;5.942;2023-07-22T07:38:20;7;;;7;;
15504;SDS011;7854;52.184;5.942;2023-07-22T07:40:34;8;;;7;;
15504;SDS011;7854;52.184;5.942;2023-07-22T07:42:48;7;;;6;;
15504;SDS011;7854;52.184;5.942;2023-07-22T07:45:04;6;;;6;;
15504;SDS011;7854;52.184;5.942;2023-07-22T07:47:18;6;;;6;;
15504;SDS011;7854;52.184;5.942;2023-07-22T07:51:46;6;;;6;;
15504;SDS011;7854;52.184;5.942;2023-07-22T07:54:02;5;;;5;;
15504;SDS011;7854;52.184;5.942;2023-07-22T07:56:16;5;;;4;;
15504;SDS011;7854;52.184;5.942;2023-07-22T07:58:31;6;;;6;;
15504;SDS011;7854;52.184;5.942;2023-07-22T08:00:44;5;;;5;;
15504;SDS011;7854;52.184;5.942;2023-07-22T08:02:58;6;;;6;;
15504;SDS011;7854;52.184;5.942;2023-07-22T08:05:13;7;;;6;;
15504;SDS011;7854;52.184;5.942;2023-07-22T08:07:28;5;;;5;;
15504;SDS011;7854;52.184;5.942;2023-07-22T08:09:42;5;;;5;;
15504;SDS011;7854;52.184;5.942;2023-07-22T08:11:56;6;;;5;;
15504;SDS011;7854;52.184;5.942;2023-07-22T08:14:11;10;;;5;;
15504;SDS011;7854;52.184;5.942;2023-07-22T08:16:25;7;;;4;;
15504;SDS011;7854;52.184;5.942;2023-07-22T08:18:40;5;;;4;;
15504;SDS011;7854;52.184;5.942;2023-07-22T08:20:55;7;;;4;;
15504;SDS011;7854;52.184;5.942;2023-07-22T08:23:08;5;;;4;;
15504;SDS011;7854;52.184;5.942;2023-07-22T08:25:22;6;;;5;;
15504;SDS011;7854;52.184;5.942;2023-07-22T08:27:37;5;;;4;;
15504;SDS011;7854;52.184;5.942;2023-07-22T08:29:51;4;;;4;;
15504;SDS011;7854;52.184;5.942;2023-07-22T08:32:06;5;;;4;;
15504;SDS011;7854;52.184;5.942;2023-07-22T08:34:20;5;;;4;;
15504;SDS011;7854;52.184;5.942;2023-07-22T08:36:34;4;;;4;;
15504;SDS011;7854;52.184;5.942;2023-07-22T08:38:49;5;;;5;;
15504;SDS011;7854;52.184;5.942;2023-07-22T08:43:19;6;;;4;;
15504;SDS011;7854;52.184;5.942;2023-07-22T08:45:31;4;;;4;;
15504;SDS011;7854;52.184;5.942;2023-07-22T08:50:00;3;;;3;;
15504;SDS011;7854;52.184;5.942;2023-07-22T08:52:14;4;;;4;;
15504;SDS011;7854;52.184;5.942;2023-07-22T08:54:27;4;;;3;;
15504;SDS011;7854;52.184;5.942;2023-07-22T08:56:48;8;;;4;;
15504;SDS011;7854;52.184;5.942;2023-07-22T08:59:08;3;;;3;;
15504;SDS011;7854;52.184;5.942;2023-07-22T09:01:29;4;;;4;;
15504;SDS011;7854;52.184;5.942;2023-07-22T09:03:49;4;;;4;;
15504;SDS011;7854;52.184;5.942;2023-07-22T09:06:09;4;;;4;;
15504;SDS011;7854;52.184;5.942;2023-07-22T09:08:23;4;;;4;;
15504;SDS011;7854;52.184;5.942;2023-07-22T09:10:38;3;;;3;;
15504;SDS011;7854;52.184;5.942;2023-07-22T09:12:52;5;;;4;;
15504;SDS011;7854;52.184;5.942;2023-07-22T09:15:08;4;;;4;;
15504;SDS011;7854;52.184;5.942;2023-07-22T09:17:21;5;;;5;;
15504;SDS011;7854;52.184;5.942;2023-07-22T09:19:36;8;;;4;;
15504;SDS011;7854;52.184;5.942;2023-07-22T09:21:50;4;;;4;;
15504;SDS011;7854;52.184;5.942;2023-07-22T09:24:19;4;;;3;;
15504;SDS011;7854;52.184;5.942;2023-07-22T09:26:20;5;;;4;;
15504;SDS011;7854;52.184;5.942;2023-07-22T09:28:46;4;;;4;;
15504;SDS011;7854;52.184;5.942;2023-07-22T09:30:48;4;;;4;;
15504;SDS011;7854;52.184;5.942;2023-07-22T09:33:03;4;;;3;;
15504;SDS011;7854;52.184;5.942;2023-07-22T09:35:17;4;;;3;;
15504;SDS011;7854;52.184;5.942;2023-07-22T09:37:35;4;;;4;;
15504;SDS011;7854;52.184;5.942;2023-07-22T09:39:46;7;;;3;;
15504;SDS011;7854;52.184;5.942;2023-07-22T09:42:00;3;;;2;;
15504;SDS011;7854;52.184;5.942;2023-07-22T09:44:15;8;;;4;;
15504;SDS011;7854;52.184;5.942;2023-07-22T09:48:44;3;;;3;;
15504;SDS011;7854;52.184;5.942;2023-07-22T09:50:58;3;;;3;;
15504;SDS011;7854;52.184;5.942;2023-07-22T09:53:14;5;;;4;;
15504;SDS011;7854;52.184;5.942;2023-07-22T09:55:27;4;;;4;;
15504;SDS011;7854;52.184;5.942;2023-07-22T10:02:10;3;;;3;;
15504;SDS011;7854;52.184;5.942;2023-07-22T10:04:25;3;;;3;;
15504;SDS011;7854;52.184;5.942;2023-07-22T10:06:38;3;;;3;;
15504;SDS011;7854;52.184;5.942;2023-07-22T10:08:58;11;;;4;;
15504;SDS011;7854;52.184;5.942;2023-07-22T10:11:20;3;;;3;;
15504;SDS011;7854;52.184;5.942;2023-07-22T10:13:40;4;;;3;;
15504;SDS011;7854;52.184;5.942;2023-07-22T10:16:00;9;;;3;;
15504;SDS011;7854;52.184;5.942;2023-07-22T10:18:20;3;;;3;;
15504;SDS011;7854;52.184;5.942;2023-07-22T10:20:34;3;;;3;;
15504;SDS011;7854;52.184;5.942;2023-07-22T10:22:49;6;;;3;;
15504;SDS011;7854;52.184;5.942;2023-07-22T10:27:18;3;;;3;;
15504;SDS011;7854;52.184;5.942;2023-07-22T10:29:33;3;;;3;;
15504;SDS011;7854;52.184;5.942;2023-07-22T10:31:47;3;;;2;;
15504;SDS011;7854;52.184;5.942;2023-07-22T10:34:01;7;;;3;;
15504;SDS011;7854;52.184;5.942;2023-07-22T10:36:16;3;;;2;;
15504;SDS011;7854;52.184;5.942;2023-07-22T10:38:30;3;;;2;;
15504;SDS011;7854;52.184;5.942;2023-07-22T10:40:45;3;;;2;;
15504;SDS011;7854;52.184;5.942;2023-07-22T10:43:00;3;;;3;;
15504;SDS011;7854;52.184;5.942;2023-07-22T10:45:23;2;;;2;;
15504;SDS011;7854;52.184;5.942;2023-07-22T10:47:31;3;;;2;;
15504;SDS011;7854;52.184;5.942;2023-07-22T10:49:43;3;;;2;;
15504;SDS011;7854;52.184;5.942;2023-07-22T10:51:56;9;;;2;;
15504;SDS011;7854;52.184;5.942;2023-07-22T10:54:11;3;;;2;;
15504;SDS011;7854;52.184;5.942;2023-07-22T10:56:26;3;;;2;;
15504;SDS011;7854;52.184;5.942;2023-07-22T10:58:55;2;;;2;;
15504;SDS011;7854;52.184;5.942;2023-07-22T11:00:55;2;;;2;;
15504;SDS011;7854;52.184;5.942;2023-07-22T11:03:09;3;;;3;;
15504;SDS011;7854;52.184;5.942;2023-07-22T11:05:22;2;;;2;;
15504;SDS011;7854;52.184;5.942;2023-07-22T11:07:42;2;;;2;;
15504;SDS011;7854;52.184;5.942;2023-07-22T11:09:53;2;;;2;;
15504;SDS011;7854;52.184;5.942;2023-07-22T11:12:06;2;;;2;;
15504;SDS011;7854;52.184;5.942;2023-07-22T11:14:21;3;;;2;;
15504;SDS011;7854;52.184;5.942;2023-07-22T11:16:34;2;;;2;;
15504;SDS011;7854;52.184;5.942;2023-07-22T11:18:49;3;;;3;;
15504;SDS011;7854;52.184;5.942;2023-07-22T11:21:07;3;;;3;;
15504;SDS011;7854;52.184;5.942;2023-07-22T11:23:18;7;;;2;;
15504;SDS011;7854;52.184;5.942;2023-07-22T11:25:33;4;;;3;;
15504;SDS011;7854;52.184;5.942;2023-07-22T11:27:47;2;;;2;;
15504;SDS011;7854;52.184;5.942;2023-07-22T11:30:02;2;;;2;;
15504;SDS011;7854;52.184;5.942;2023-07-22T11:32:16;7;;;3;;
15504;SDS011;7854;52.184;5.942;2023-07-22T11:34:30;4;;;4;;
15504;SDS011;7854;52.184;5.942;2023-07-22T11:39:02;5;;;4;;
15504;SDS011;7854;52.184;5.942;2023-07-22T11:41:13;5;;;5;;
15504;SDS011;7854;52.184;5.942;2023-07-22T11:43:28;4;;;4;;
15504;SDS011;7854;52.184;5.942;2023-07-22T11:45:42;4;;;4;;
15504;SDS011;7854;52.184;5.942;2023-07-22T11:47:56;5;;;4;;
15504;SDS011;7854;52.184;5.942;2023-07-22T11:50:11;4;;;4;;
15504;SDS011;7854;52.184;5.942;2023-07-22T11:52:26;4;;;4;;
15504;SDS011;7854;52.184;5.942;2023-07-22T11:54:41;4;;;4;;
15504;SDS011;7854;52.184;5.942;2023-07-22T11:56:55;4;;;4;;
15504;SDS011;7854;52.184;5.942;2023-07-22T11:59:09;4;;;4;;
15504;SDS011;7854;52.184;5.942;2023-07-22T12:01:23;4;;;3;;
15504;SDS011;7854;52.184;5.942;2023-07-22T12:03:39;5;;;4;;
15504;SDS011;7854;52.184;5.942;2023-07-22T12:05:52;3;;;3;;
15504;SDS011;7854;52.184;5.942;2023-07-22T12:08:07;6;;;4;;
15504;SDS011;7854;52.184;5.942;2023-07-22T12:10:21;10;;;4;;
15504;SDS011;7854;52.184;5.942;2023-07-22T12:12:36;2;;;2;;
15504;SDS011;7854;52.184;5.942;2023-07-22T12:14:51;6;;;3;;
15504;SDS011;7854;52.184;5.942;2023-07-22T12:17:07;3;;;3;;
15504;SDS011;7854;52.184;5.942;2023-07-22T12:19:19;3;;;3;;
15504;SDS011;7854;52.184;5.942;2023-07-22T12:21:33;5;;;3;;
15504;SDS011;7854;52.184;5.942;2023-07-22T12:23:48;12;;;3;;
15504;SDS011;7854;52.184;5.942;2023-07-22T12:26:02;4;;;2;;
15504;SDS011;7854;52.184;5.942;2023-07-22T12:28:17;5;;;2;;
15504;SDS011;7854;52.184;5.942;2023-07-22T12:30:31;3;;;3;;
15504;SDS011;7854;52.184;5.942;2023-07-22T12:32:46;7;;;2;;
15504;SDS011;7854;52.184;5.942;2023-07-22T12:35:00;3;;;2;;
15504;SDS011;7854;52.184;5.942;2023-07-22T12:37:15;2;;;2;;
15504;SDS011;7854;52.184;5.942;2023-07-22T12:39:29;2;;;2;;
15504;SDS011;7854;52.184;5.942;2023-07-22T12:41:43;3;;;2;;
15504;SDS011;7854;52.184;5.942;2023-07-22T12:43:58;4;;;2;;
15504;SDS011;7854;52.184;5.942;2023-07-22T12:46:12;3;;;2;;
15504;SDS011;7854;52.184;5.942;2023-07-22T12:48:27;2;;;2;;
15504;SDS011;7854;52.184;5.942;2023-07-22T12:50:41;2;;;2;;
15504;SDS011;7854;52.184;5.942;2023-07-22T12:52:55;2;;;2;;
15504;SDS011;7854;52.184;5.942;2023-07-22T12:55:10;7;;;3;;
15504;SDS011;7854;52.184;5.942;2023-07-22T12:57:25;3;;;3;;
15504;SDS011;7854;52.184;5.942;2023-07-22T12:59:39;4;;;3;;
15504;SDS011;7854;52.184;5.942;2023-07-22T13:01:54;4;;;4;;
15504;SDS011;7854;52.184;5.942;2023-07-22T13:04:08;5;;;4;;
15504;SDS011;7854;52.184;5.942;2023-07-22T13:06:22;6;;;5;;
15504;SDS011;7854;52.184;5.942;2023-07-22T13:08:37;7;;;5;;
15504;SDS011;7854;52.184;5.942;2023-07-22T13:10:51;7;;;7;;
15504;SDS011;7854;52.184;5.942;2023-07-22T13:13:06;7;;;7;;
15504;SDS011;7854;52.184;5.942;2023-07-22T13:15:20;7;;;6;;
15504;SDS011;7854;52.184;5.942;2023-07-22T13:17:35;6;;;5;;
15504;SDS011;7854;52.184;5.942;2023-07-22T13:19:49;6;;;6;;
15504;SDS011;7854;52.184;5.942;2023-07-22T13:22:03;6;;;6;;
15504;SDS011;7854;52.184;5.942;2023-07-22T13:24:18;6;;;5;;
15504;SDS011;7854;52.184;5.942;2023-07-22T13:26:33;6;;;5;;
15504;SDS011;7854;52.184;5.942;2023-07-22T13:28:46;7;;;7;;
15504;SDS011;7854;52.184;5.942;2023-07-22T13:31:00;5;;;5;;
15504;SDS011;7854;52.184;5.942;2023-07-22T13:33:15;5;;;5;;
15504;SDS011;7854;52.184;5.942;2023-07-22T13:35:29;5;;;5;;
15504;SDS011;7854;52.184;5.942;2023-07-22T13:37:43;7;;;7;;
15504;SDS011;7854;52.184;5.942;2023-07-22T13:39:58;5;;;4;;
15504;SDS011;7854;52.184;5.942;2023-07-22T13:42:13;5;;;4;;
15504;SDS011;7854;52.184;5.942;2023-07-22T13:44:27;5;;;5;;
15504;SDS011;7854;52.184;5.942;2023-07-22T13:46:41;5;;;5;;
15504;SDS011;7854;52.184;5.942;2023-07-22T13:48:56;4;;;4;;
15504;SDS011;7854;52.184;5.942;2023-07-22T13:51:10;4;;;4;;
15504;SDS011;7854;52.184;5.942;2023-07-22T13:53:25;4;;;4;;
15504;SDS011;7854;52.184;5.942;2023-07-22T13:55:39;5;;;4;;
15504;SDS011;7854;52.184;5.942;2023-07-22T13:57:53;4;;;4;;
15504;SDS011;7854;52.184;5.942;2023-07-22T14:00:08;3;;;3;;
15504;SDS011;7854;52.184;5.942;2023-07-22T14:02:23;4;;;3;;
15504;SDS011;7854;52.184;5.942;2023-07-22T14:04:37;4;;;4;;
15504;SDS011;7854;52.184;5.942;2023-07-22T14:06:51;4;;;4;;
15504;SDS011;7854;52.184;5.942;2023-07-22T14:09:06;5;;;5;;
15504;SDS011;7854;52.184;5.942;2023-07-22T14:11:20;4;;;4;;
15504;SDS011;7854;52.184;5.942;2023-07-22T14:13:35;4;;;4;;
15504;SDS011;7854;52.184;5.942;2023-07-22T14:15:49;5;;;4;;
15504;SDS011;7854;52.184;5.942;2023-07-22T14:18:04;6;;;5;;
15504;SDS011;7854;52.184;5.942;2023-07-22T14:20:18;7;;;5;;
15504;SDS011;7854;52.184;5.942;2023-07-22T14:24:47;5;;;5;;
15504;SDS011;7854;52.184;5.942;2023-07-22T14:27:01;7;;;6;;
15504;SDS011;7854;52.184;5.942;2023-07-22T14:29:16;6;;;6;;
15504;SDS011;7854;52.184;5.942;2023-07-22T14:31:30;6;;;5;;
15504;SDS011;7854;52.184;5.942;2023-07-22T14:33:44;14;;;6;;
15504;SDS011;7854;52.184;5.942;2023-07-22T14:35:59;12;;;5;;
15504;SDS011;7854;52.184;5.942;2023-07-22T14:38:13;6;;;5;;
15504;SDS011;7854;52.184;5.942;2023-07-22T14:40:28;5;;;5;;
15504;SDS011;7854;52.184;5.942;2023-07-22T14:42:42;5;;;4;;
15504;SDS011;7854;52.184;5.942;2023-07-22T14:44:57;6;;;5;;
15504;SDS011;7854;52.184;5.942;2023-07-22T14:47:11;5;;;5;;
15504;SDS011;7854;52.184;5.942;2023-07-22T14:49:26;6;;;5;;
15504;SDS011;7854;52.184;5.942;2023-07-22T14:51:40;5;;;4;;
15504;SDS011;7854;52.184;5.942;2023-07-22T14:53:54;6;;;5;;
15504;SDS011;7854;52.184;5.942;2023-07-22T14:56:09;5;;;5;;
15504;SDS011;7854;52.184;5.942;2023-07-22T14:58:24;6;;;6;;
15504;SDS011;7854;52.184;5.942;2023-07-22T15:00:38;9;;;5;;
15504;SDS011;7854;52.184;5.942;2023-07-22T15:02:52;4;;;3;;
15504;SDS011;7854;52.184;5.942;2023-07-22T15:05:07;4;;;4;;
15504;SDS011;7854;52.184;5.942;2023-07-22T15:07:22;4;;;4;;
15504;SDS011;7854;52.184;5.942;2023-07-22T15:09:36;5;;;4;;
15504;SDS011;7854;52.184;5.942;2023-07-22T15:11:50;3;;;3;;
15504;SDS011;7854;52.184;5.942;2023-07-22T15:14:05;5;;;3;;
15504;SDS011;7854;52.184;5.942;2023-07-22T15:16:19;6;;;3;;
15504;SDS011;7854;52.184;5.942;2023-07-22T15:18:34;4;;;3;;
15504;SDS011;7854;52.184;5.942;2023-07-22T15:20:48;3;;;3;;
15504;SDS011;7854;52.184;5.942;2023-07-22T15:25:17;3;;;2;;
15504;SDS011;7854;52.184;5.942;2023-07-22T15:27:31;3;;;3;;
15504;SDS011;7854;52.184;5.942;2023-07-22T15:29:46;2;;;2;;
15504;SDS011;7854;52.184;5.942;2023-07-22T15:32:00;3;;;1;;
15504;SDS011;7854;52.184;5.942;2023-07-22T15:34:14;2;;;1;;
15504;SDS011;7854;52.184;5.942;2023-07-22T15:36:29;2;;;1;;
15504;SDS011;7854;52.184;5.942;2023-07-22T15:40:58;2;;;1;;
15504;SDS011;7854;52.184;5.942;2023-07-22T15:43:12;2;;;2;;
15504;SDS011;7854;52.184;5.942;2023-07-22T15:45:27;2;;;2;;
15504;SDS011;7854;52.184;5.942;2023-07-22T15:47:41;2;;;2;;